Archival Weather

Vermilion Rgnl

Danville, Illinois (KDNV)

Report from: Saturday, April 13, 2024 12:15 PM CDT
Current time: Sunday, July 14, 2024 4:57 AM CDT

Current weather – Weather history – Daily summaries
Weather forecast

Temperature18.1°C (64.6°F)
Dew point3.2°C (37.8°F)
Winds 8 kts (4.1 m/s, 9.2 mph) West (280°)
Visibility10 mi. (16.1 km)
Clouds Sky clear
Altimeter30.14 in.Hg (1021 mB)
Relative humidity37 %
Density altitude231 ft. (70 m)
Remarks Fully automated report
Automated weather observing station with precipitation discriminator
Flight conditions Visual Meteorological Conditions
Raw dataKDNV 131715Z AUTO 28008KT 10SM CLR 18/03 A3014 RMK AO2 T01810032
An error has occurred. This application may no longer respond until reloaded. Reload 🗙